Time;durP1;ratioP1;P1;durP2;ratioP2;P2;SDS_P1;SDS_P2;PMS_P1;PMS_P2;Temp;Humidity;BMP_temperature;BMP_pressure;BME280_temperature;BME280_humidity;BME280_pressure;Samples;Min_cycle;Max_cycle;Signal;HPM_P1;HPM_P2
2023/04/02 00:00:10;;;;;;;4.57;4.17;;;3.30;99.90;;;;;;5056215;28;20520;-68
2023/04/02 00:03:02;;;;;;;8.20;4.50;;;3.30;99.90;;;;;;5051532;28;20420;-68
2023/04/02 00:05:49;;;;;;;4.93;4.40;;;3.30;99.90;;;;;;5043805;28;21028;-68
2023/04/02 00:08:39;;;;;;;5.40;4.20;;;3.20;99.90;;;;;;5055162;28;20500;-68
2023/04/02 00:11:06;;;;;;;4.00;3.70;;;3.20;99.90;;;;;;5055382;28;20463;-70
2023/04/02 00:13:43;;;;;;;4.87;4.07;;;3.20;99.90;;;;;;5047278;28;20418;-68
2023/04/02 00:16:16;;;;;;;6.07;3.97;;;3.20;99.90;;;;;;5055138;28;20440;-67
2023/04/02 00:18:48;;;;;;;4.87;4.43;;;3.20;99.90;;;;;;5049236;28;20520;-68
2023/04/02 00:21:35;;;;;;;4.20;3.80;;;3.20;99.90;;;;;;5062337;28;20496;-68
2023/04/02 00:24:07;;;;;;;3.53;3.23;;;3.20;99.90;;;;;;5057306;28;20824;-67
2023/04/02 00:26:39;;;;;;;5.27;4.23;;;3.10;99.90;;;;;;5058611;28;20493;-67
2023/04/02 00:29:06;;;;;;;7.00;4.13;;;3.10;99.90;;;;;;5062855;28;20409;-69
2023/04/02 00:31:36;;;;;;;4.63;4.23;;;3.10;99.90;;;;;;5056627;28;20428;-69
2023/04/02 00:34:03;;;;;;;6.97;4.63;;;3.10;99.90;;;;;;5055157;28;20452;-68
2023/04/02 00:36:35;;;;;;;5.60;4.10;;;3.10;99.90;;;;;;5047581;28;20433;-69
2023/04/02 00:39:03;;;;;;;5.17;4.00;;;3.10;99.90;;;;;;5054597;28;20418;-70
2023/04/02 00:41:34;;;;;;;4.53;4.13;;;3.10;99.90;;;;;;5046970;28;20441;-69
2023/04/02 00:44:01;;;;;;;6.50;4.03;;;3.10;99.90;;;;;;5054839;28;20402;-69
2023/04/02 00:46:45;;;;;;;5.43;4.93;;;3.10;99.90;;;;;;5054161;28;20460;-68
2023/04/02 00:49:20;;;;;;;5.37;4.87;;;3.10;99.90;;;;;;5054370;28;20406;-69
2023/04/02 00:51:52;;;;;;;4.97;4.57;;;3.10;99.90;;;;;;5053258;28;20417;-69
2023/04/02 00:54:20;;;;;;;5.53;5.13;;;3.10;99.90;;;;;;5053910;28;20470;-67
2023/04/02 00:56:50;;;;;;;4.80;4.50;;;3.10;99.90;;;;;;5052761;28;20437;-68
2023/04/02 00:59:23;;;;;;;4.83;4.33;;;3.10;99.90;;;;;;5053862;28;20457;-69
2023/04/02 01:02:16;;;;;;;8.43;4.07;;;3.10;99.90;;;;;;5049288;28;20417;-67
2023/04/02 01:04:50;;;;;;;6.00;3.80;;;3.10;99.90;;;;;;5046682;28;20869;-68
2023/04/02 01:07:17;;;;;;;7.67;4.13;;;3.10;99.90;;;;;;5053909;28;20514;-69
2023/04/02 01:09:45;;;;;;;4.47;4.10;;;3.00;99.90;;;;;;5054125;28;20417;-69
2023/04/02 01:12:43;;;;;;;4.00;3.60;;;3.00;99.90;;;;;;5053500;28;20413;-67
2023/04/02 01:15:18;;;;;;;4.97;3.60;;;3.00;99.90;;;;;;5051256;28;20520;-69
2023/04/02 01:17:53;;;;;;;4.23;3.90;;;3.00;99.90;;;;;;5053606;28;20409;-68
2023/04/02 01:20:21;;;;;;;3.73;3.30;;;3.10;99.90;;;;;;5052015;28;20466;-68
2023/04/02 01:23:17;;;;;;;5.40;3.70;;;3.10;99.90;;;;;;5053429;28;20417;-70
2023/04/02 01:26:24;;;;;;;4.40;4.10;;;3.10;99.90;;;;;;5045069;28;20457;-69
2023/04/02 01:29:07;;;;;;;4.47;3.87;;;3.10;99.90;;;;;;5048671;28;20518;-69
2023/04/02 01:31:33;;;;;;;5.60;4.77;;;3.00;99.90;;;;;;5049433;28;20424;-68
2023/04/02 01:34:01;;;;;;;4.43;4.03;;;3.10;99.90;;;;;;5053164;28;20454;-68
2023/04/02 01:36:57;;;;;;;4.50;3.30;;;3.10;99.90;;;;;;5053272;28;20464;-69
2023/04/02 01:39:55;;;;;;;6.70;3.80;;;3.10;99.90;;;;;;5053079;28;20432;-69
2023/04/02 01:42:57;;;;;;;3.73;3.27;;;3.10;99.90;;;;;;5052126;28;20405;-69
2023/04/02 01:45:23;;;;;;;6.17;4.03;;;3.10;99.90;;;;;;5053048;28;20502;-69
2023/04/02 01:47:50;;;;;;;3.80;3.50;;;3.10;99.90;;;;;;5053202;28;20449;-68
2023/04/02 01:50:30;;;;;;;4.17;3.77;;;3.10;99.90;;;;;;5053216;28;20405;-68
2023/04/02 01:53:01;;;;;;;3.97;3.63;;;3.10;99.90;;;;;;5053025;28;20517;-67
2023/04/02 01:55:47;;;;;;;3.50;3.20;;;3.10;99.90;;;;;;5051797;28;20485;-68
2023/04/02 01:58:16;;;;;;;8.33;3.33;;;3.10;99.90;;;;;;5053364;28;20413;-68
2023/04/02 02:01:15;;;;;;;3.60;3.30;;;3.10;99.90;;;;;;5052928;28;20463;-68
2023/04/02 02:03:43;;;;;;;3.77;2.97;;;3.10;99.90;;;;;;5042220;28;20422;-70
2023/04/02 02:06:13;;;;;;;3.80;2.83;;;3.10;99.90;;;;;;5051216;28;20548;-68
2023/04/02 02:08:46;;;;;;;3.43;3.13;;;3.10;99.90;;;;;;5051553;28;20496;-68
2023/04/02 02:11:18;;;;;;;5.73;2.70;;;3.10;99.90;;;;;;5052301;28;20784;-68
2023/04/02 02:14:11;;;;;;;3.83;2.20;;;3.00;99.90;;;;;;5050485;28;20420;-70
2023/04/02 02:16:40;;;;;;;3.07;2.87;;;3.00;99.90;;;;;;5045665;28;20409;-69
2023/04/02 02:19:31;;;;;;;2.30;2.07;;;3.00;99.90;;;;;;5053089;28;20409;-67
2023/04/02 02:22:13;;;;;;;2.20;2.10;;;3.00;99.90;;;;;;5047209;28;20494;-68
2023/04/02 02:24:40;;;;;;;2.57;2.47;;;3.00;99.90;;;;;;5049569;28;20861;-69
2023/04/02 02:27:21;;;;;;;1.90;1.80;;;3.00;99.90;;;;;;5051875;28;20510;-67
2023/04/02 02:30:09;;;;;;;3.27;2.30;;;3.00;99.90;;;;;;5051828;28;20946;-68
2023/04/02 02:32:41;;;;;;;2.77;2.47;;;3.10;99.90;;;;;;5044775;28;20409;-68
2023/04/02 02:35:15;;;;;;;2.77;2.43;;;3.00;99.90;;;;;;5051585;28;20931;-68
2023/04/02 02:37:45;;;;;;;2.83;2.60;;;3.00;99.90;;;;;;5052129;28;20413;-68
2023/04/02 02:40:20;;;;;;;4.33;2.10;;;3.00;99.90;;;;;;5052057;28;20463;-69
2023/04/02 02:42:56;;;;;;;4.33;2.87;;;3.00;99.90;;;;;;5050848;28;20416;-68
2023/04/02 02:45:26;;;;;;;2.53;2.30;;;3.00;99.90;;;;;;5051424;28;20421;-69
2023/04/02 02:47:55;;;;;;;3.67;3.30;;;3.00;99.90;;;;;;5053016;28;20427;-69
2023/04/02 02:50:24;;;;;;;3.30;2.20;;;3.10;99.90;;;;;;5054211;28;20401;-68
2023/04/02 02:52:53;;;;;;;5.60;2.13;;;3.10;99.90;;;;;;5051587;28;20402;-68
2023/04/02 02:55:33;;;;;;;2.57;2.37;;;3.10;99.90;;;;;;5051194;28;20483;-69
2023/04/02 02:58:05;;;;;;;3.60;2.40;;;3.00;99.90;;;;;;5051557;28;20479;-68
2023/04/02 03:00:32;;;;;;;2.93;2.70;;;3.10;99.90;;;;;;5050147;28;20830;-68
2023/04/02 03:02:58;;;;;;;3.37;3.10;;;3.10;99.90;;;;;;5051328;28;20413;-69
2023/04/02 03:05:26;;;;;;;2.23;2.03;;;3.10;99.90;;;;;;5050731;28;20846;-70
2023/04/02 03:07:56;;;;;;;2.60;2.40;;;3.10;99.90;;;;;;5050957;28;20417;-69
2023/04/02 03:10:43;;;;;;;2.77;2.57;;;3.10;99.90;;;;;;5050720;28;20409;-68
2023/04/02 03:13:23;;;;;;;2.50;2.30;;;3.10;99.90;;;;;;5048216;28;20412;-69
2023/04/02 03:16:07;;;;;;;3.27;3.07;;;3.10;99.90;;;;;;5050905;28;20444;-68
2023/04/02 03:18:50;;;;;;;2.50;2.30;;;3.10;99.90;;;;;;5041995;28;20417;-69
2023/04/02 03:21:28;;;;;;;4.57;2.70;;;3.10;99.90;;;;;;5050955;28;20820;-69
2023/04/02 03:24:00;;;;;;;7.27;2.90;;;3.10;99.90;;;;;;5051271;28;20409;-69
2023/04/02 03:26:36;;;;;;;2.03;1.90;;;3.10;99.90;;;;;;5054624;28;20461;-68
2023/04/02 03:29:14;;;;;;;1.67;1.57;;;3.10;99.90;;;;;;5055071;28;20402;-69
2023/04/02 03:32:07;;;;;;;3.30;2.30;;;3.10;99.90;;;;;;5054480;28;20907;-68
2023/04/02 03:34:57;;;;;;;8.90;2.50;;;3.10;99.90;;;;;;5050111;28;20425;-69
2023/04/02 03:37:47;;;;;;;2.50;2.00;;;3.10;99.90;;;;;;5054801;28;20401;-68
2023/04/02 03:40:23;;;;;;;4.13;2.60;;;3.10;99.90;;;;;;5055018;28;20492;-67
2023/04/02 03:43:00;;;;;;;2.10;1.90;;;3.10;99.90;;;;;;5055186;28;20413;-68
2023/04/02 03:45:35;;;;;;;2.67;2.47;;;3.10;99.90;;;;;;5054081;28;20846;-69
2023/04/02 03:48:14;;;;;;;2.03;1.93;;;3.10;99.90;;;;;;5055819;28;20405;-68
2023/04/02 03:50:53;;;;;;;3.10;2.13;;;3.10;99.90;;;;;;5054725;28;20498;-69
2023/04/02 03:53:23;;;;;;;5.63;2.27;;;3.10;99.90;;;;;;5055478;28;20401;-67
2023/04/02 03:55:50;;;;;;;2.73;2.53;;;3.10;99.90;;;;;;5055897;28;20451;-69
2023/04/02 03:58:39;;;;;;;3.80;2.40;;;3.20;99.90;;;;;;5055219;28;20409;-68
2023/04/02 04:01:26;;;;;;;3.20;2.90;;;3.10;99.90;;;;;;5054605;28;20943;-68
2023/04/02 04:03:54;;;;;;;2.90;2.70;;;3.10;99.90;;;;;;5054263;28;20458;-69
2023/04/02 04:06:26;;;;;;;2.23;1.83;;;3.20;99.90;;;;;;5054126;28;20461;-68
2023/04/02 04:09:14;;;;;;;3.73;2.30;;;3.20;99.90;;;;;;5054101;28;20417;-68
2023/04/02 04:11:45;;;;;;;4.53;2.53;;;3.20;99.90;;;;;;5047652;28;20454;-68
2023/04/02 04:14:27;;;;;;;2.57;2.37;;;3.20;99.90;;;;;;5052282;28;20397;-69
2023/04/02 04:16:56;;;;;;;7.30;3.03;;;3.20;99.90;;;;;;5054007;28;20409;-67
2023/04/02 04:19:31;;;;;;;2.30;2.20;;;3.20;99.90;;;;;;5053898;28;20409;-67
2023/04/02 04:22:16;;;;;;;2.87;2.67;;;3.20;99.90;;;;;;5054587;28;20907;-68
2023/04/02 04:24:44;;;;;;;3.90;3.47;;;3.20;99.90;;;;;;5051889;28;20433;-70
2023/04/02 04:27:34;;;;;;;2.87;2.33;;;3.20;99.90;;;;;;5053724;28;20457;-68
2023/04/02 04:30:17;;;;;;;3.27;3.07;;;3.20;99.90;;;;;;5053658;28;20409;-68
2023/04/02 04:32:56;;;;;;;4.60;2.37;;;3.20;99.90;;;;;;5047900;28;20408;-68
2023/04/02 04:35:33;;;;;;;5.03;2.63;;;3.20;99.90;;;;;;5053306;28;20448;-69
2023/04/02 04:38:06;;;;;;;4.00;2.37;;;3.20;99.90;;;;;;5051385;28;20843;-70
2023/04/02 04:40:35;;;;;;;2.40;2.20;;;3.20;99.90;;;;;;5050923;28;20440;-68
2023/04/02 04:43:06;;;;;;;4.13;2.23;;;3.20;99.90;;;;;;5053730;28;20402;-68
2023/04/02 04:45:40;;;;;;;2.60;2.30;;;3.20;99.90;;;;;;5049776;28;20530;-68
2023/04/02 04:48:35;;;;;;;5.97;2.30;;;3.30;99.90;;;;;;5053763;28;20405;-68
2023/04/02 04:51:16;;;;;;;9.80;2.60;;;3.20;99.90;;;;;;5053692;28;20484;-69
2023/04/02 04:53:50;;;;;;;2.53;2.33;;;3.30;99.90;;;;;;5046931;28;20409;-71
2023/04/02 04:56:23;;;;;;;2.70;1.70;;;3.30;99.90;;;;;;5074273;22;20858;-73
2023/04/02 04:59:09;;;;;;;2.43;1.90;;;3.30;99.90;;;;;;5056507;28;20416;-73
2023/04/02 05:01:47;;;;;;;2.03;1.93;;;3.30;99.90;;;;;;5052955;28;20398;-73
2023/04/02 05:04:38;;;;;;;2.70;2.27;;;3.30;99.90;;;;;;5055154;28;20389;-73
2023/04/02 05:07:29;;;;;;;3.23;2.13;;;3.30;99.90;;;;;;5055834;28;20464;-75
2023/04/02 05:10:16;;;;;;;1.90;1.80;;;3.30;99.90;;;;;;5048420;28;20440;-75
2023/04/02 05:12:51;;;;;;;1.70;1.60;;;3.30;99.90;;;;;;5047681;28;20397;-72
2023/04/02 05:15:35;;;;;;;7.83;3.20;;;3.30;99.90;;;;;;5055591;28;20429;-76
2023/04/02 05:18:06;;;;;;;3.50;2.57;;;3.30;99.90;;;;;;5077782;28;20401;-76
2023/04/02 05:20:40;;;;;;;3.33;2.30;;;3.40;99.90;;;;;;5070059;28;20455;-77
2023/04/02 05:23:16;;;;;;;2.90;2.37;;;3.40;99.90;;;;;;5071674;28;20406;-76
2023/04/02 05:26:10;;;;;;;3.10;2.00;;;3.40;99.90;;;;;;5077679;28;20449;-77
2023/04/02 05:28:45;;;;;;;4.30;1.90;;;3.40;99.90;;;;;;5070552;28;20421;-76
2023/04/02 05:31:24;;;;;;;4.07;2.90;;;3.40;99.90;;;;;;5077108;28;20417;-75
2023/04/02 05:33:50;;;;;;;2.33;2.13;;;3.50;99.90;;;;;;5074562;28;20424;-74
2023/04/02 05:36:26;;;;;;;8.53;2.43;;;3.50;99.90;;;;;;5074083;28;20463;-73
2023/04/02 05:38:55;;;;;;;4.83;2.33;;;3.50;99.90;;;;;;5058366;28;20413;-72
2023/04/02 05:41:35;;;;;;;2.73;1.67;;;3.50;99.90;;;;;;5053242;28;20417;-72
2023/04/02 05:44:46;;;;;;;2.50;2.30;;;3.50;99.90;;;;;;5051747;28;20523;-73
2023/04/02 05:47:26;;;;;;;2.97;2.10;;;3.50;99.90;;;;;;5039294;28;20465;-73
2023/04/02 05:50:07;;;;;;;2.10;1.60;;;3.50;99.90;;;;;;5053121;28;20424;-72
2023/04/02 05:52:38;;;;;;;3.00;1.53;;;3.60;99.90;;;;;;5045192;28;20409;-73
2023/04/02 05:55:10;;;;;;;2.90;1.90;;;3.60;99.90;;;;;;5052371;28;20502;-74
2023/04/02 05:57:52;;;;;;;3.30;2.00;;;3.60;99.90;;;;;;5052909;28;20412;-74
2023/04/02 06:00:25;;;;;;;3.33;1.73;;;3.60;99.90;;;;;;5052617;28;20867;-74
2023/04/02 06:02:58;;;;;;;4.83;1.90;;;3.70;99.90;;;;;;5052376;28;20413;-73
2023/04/02 06:05:34;;;;;;;3.33;1.87;;;3.70;99.90;;;;;;5038596;28;20445;-73
2023/04/02 06:08:25;;;;;;;3.00;1.70;;;3.80;99.90;;;;;;5053382;28;20416;-72
2023/04/02 06:10:59;;;;;;;5.47;1.90;;;3.80;99.90;;;;;;5052726;28;20509;-72
2023/04/02 06:13:26;;;;;;;4.10;1.70;;;3.80;99.90;;;;;;5051864;28;20449;-72
2023/04/02 06:15:52;;;;;;;1.60;1.50;;;3.80;99.90;;;;;;5052143;28;20444;-72
2023/04/02 06:18:22;;;;;;;2.20;1.77;;;3.90;99.90;;;;;;5052967;28;20421;-72
2023/04/02 06:20:48;;;;;;;3.50;1.80;;;4.00;99.90;;;;;;5053846;28;20187;-73
2023/04/02 06:23:29;;;;;;;3.87;1.93;;;4.30;99.90;;;;;;5054252;28;20409;-74
2023/04/02 06:26:16;;;;;;;2.70;1.57;;;4.30;99.90;;;;;;5052869;28;20465;-72
2023/04/02 06:28:46;;;;;;;1.80;1.30;;;4.40;99.90;;;;;;5045813;28;20425;-72
2023/04/02 06:31:27;;;;;;;8.30;2.50;;;4.40;99.90;;;;;;5052490;28;20416;-72
2023/04/02 06:33:55;;;;;;;2.67;1.50;;;4.60;99.90;;;;;;5052108;28;20757;-72
2023/04/02 06:36:21;;;;;;;3.20;1.50;;;4.50;99.90;;;;;;5051485;28;20436;-72
2023/04/02 06:38:49;;;;;;;3.47;2.00;;;4.70;99.90;;;;;;5052108;28;20453;-74
2023/04/02 06:41:23;;;;;;;3.73;1.33;;;4.90;99.90;;;;;;5052046;28;20425;-73
2023/04/02 06:43:54;;;;;;;3.70;1.37;;;5.10;99.90;;;;;;5052017;28;20998;-72
2023/04/02 06:46:31;;;;;;;4.27;1.27;;;5.30;99.90;;;;;;5051318;28;20457;-73
2023/04/02 06:49:08;;;;;;;1.40;1.30;;;5.30;99.90;;;;;;5051712;28;21034;-73
2023/04/02 06:51:35;;;;;;;2.57;1.80;;;5.50;99.90;;;;;;5050071;28;20405;-73
2023/04/02 06:54:01;;;;;;;3.27;1.77;;;5.70;99.90;;;;;;5052005;28;20508;-73
2023/04/02 06:56:46;;;;;;;4.70;1.23;;;6.40;99.90;;;;;;5051554;28;20547;-72
2023/04/02 06:59:13;;;;;;;4.73;1.90;;;7.00;99.90;;;;;;5051473;28;20198;-73
2023/04/02 07:01:50;;;;;;;1.77;1.30;;;6.90;99.90;;;;;;5050432;28;20938;-72
2023/04/02 07:04:18;;;;;;;2.87;1.30;;;7.40;99.90;;;;;;5051550;28;20436;-73
2023/04/02 07:06:43;;;;;;;3.20;1.30;;;7.00;99.90;;;;;;5051043;28;20484;-72
2023/04/02 07:09:09;;;;;;;2.60;1.40;;;6.50;99.90;;;;;;5051715;28;20756;-72
2023/04/02 07:11:35;;;;;;;5.10;1.53;;;6.40;99.90;;;;;;5051862;28;20167;-72
2023/04/02 07:14:01;;;;;;;1.50;1.30;;;6.30;99.90;;;;;;5048633;28;20250;-74
2023/04/02 07:16:28;;;;;;;1.53;1.37;;;5.90;99.90;;;;;;5040652;28;20532;-72
2023/04/02 07:18:54;;;;;;;1.67;1.33;;;5.40;99.90;;;;;;5051717;28;20230;-73
2023/04/02 07:21:21;;;;;;;1.90;1.70;;;5.60;99.90;;;;;;5051309;28;20441;-73
2023/04/02 07:23:47;;;;;;;1.50;1.03;;;5.90;99.90;;;;;;5051314;28;20413;-73
2023/04/02 07:26:19;;;;;;;2.87;1.60;;;5.80;99.90;;;;;;5050855;28;20985;-73
2023/04/02 07:28:45;;;;;;;1.90;1.50;;;5.70;99.90;;;;;;5051429;28;20175;-75
2023/04/02 07:31:19;;;;;;;0.80;0.80;;;5.60;99.90;;;;;;5051598;28;20488;-75
2023/04/02 07:33:45;;;;;;;1.20;1.10;;;5.90;99.90;;;;;;5051514;28;20459;-74
2023/04/02 07:36:20;;;;;;;3.33;1.30;;;6.50;99.90;;;;;;5050866;28;20825;-74
2023/04/02 07:38:46;;;;;;;1.50;1.30;;;6.50;99.90;;;;;;5051191;28;20420;-73
2023/04/02 07:41:12;;;;;;;1.80;1.50;;;6.20;99.90;;;;;;5051167;28;20453;-73
2023/04/02 07:43:39;;;;;;;1.47;1.37;;;6.00;99.90;;;;;;5051289;28;20958;-73
2023/04/02 07:46:06;;;;;;;2.03;1.50;;;5.90;99.90;;;;;;5051236;28;20457;-72
2023/04/02 07:48:31;;;;;;;4.43;2.03;;;6.00;99.90;;;;;;5043466;28;20467;-72
2023/04/02 07:50:58;;;;;;;1.47;1.10;;;5.80;99.90;;;;;;5051595;28;20417;-74
2023/04/02 07:53:30;;;;;;;1.93;1.40;;;5.60;99.90;;;;;;5049903;28;20179;-73
2023/04/02 07:55:57;;;;;;;1.70;1.40;;;5.50;99.90;;;;;;5051382;28;20617;-73
2023/04/02 07:58:23;;;;;;;1.67;1.50;;;5.40;99.90;;;;;;5051321;28;20441;-75
2023/04/02 08:00:48;;;;;;;1.70;1.37;;;5.20;99.90;;;;;;5051871;28;20417;-73
2023/04/02 08:03:15;;;;;;;2.13;1.40;;;5.10;99.90;;;;;;5050682;28;20611;-72
2023/04/02 08:05:40;;;;;;;3.00;1.57;;;5.00;99.90;;;;;;5051341;28;20206;-72
2023/04/02 08:08:06;;;;;;;2.90;1.30;;;5.20;99.90;;;;;;5051664;28;20469;-72
2023/04/02 08:10:32;;;;;;;3.30;1.50;;;5.20;99.90;;;;;;5052252;28;20194;-73
2023/04/02 08:12:57;;;;;;;1.60;1.30;;;5.20;99.90;;;;;;5054816;28;20580;-75
2023/04/02 08:15:23;;;;;;;1.40;1.20;;;5.10;99.90;;;;;;5055022;28;20191;-73
2023/04/02 08:17:48;;;;;;;2.70;1.43;;;5.10;99.90;;;;;;5054973;28;20637;-72
2023/04/02 08:20:17;;;;;;;1.60;1.37;;;5.20;99.90;;;;;;5055685;28;20179;-73
2023/04/02 08:22:44;;;;;;;3.47;1.30;;;5.40;99.90;;;;;;5051825;28;20235;-72
2023/04/02 08:25:10;;;;;;;3.37;1.40;;;5.40;99.90;;;;;;5055953;28;20413;-74
2023/04/02 08:27:35;;;;;;;2.33;1.07;;;5.50;99.90;;;;;;5062278;28;20455;-74
2023/04/02 08:30:01;;;;;;;2.20;1.47;;;5.40;99.90;;;;;;5066524;28;20178;-73
2023/04/02 08:32:27;;;;;;;1.83;1.47;;;5.40;99.90;;;;;;5066093;28;20174;-74
2023/04/02 08:34:53;;;;;;;3.40;1.33;;;5.40;99.90;;;;;;5064663;28;20163;-73
2023/04/02 08:37:19;;;;;;;2.17;1.40;;;5.50;99.90;;;;;;5060353;28;20416;-74
2023/04/02 08:39:45;;;;;;;1.83;1.20;;;5.50;99.90;;;;;;5060015;28;20178;-74
2023/04/02 08:42:45;;;;;;;1.70;1.60;;;5.60;99.90;;;;;;5057943;28;20679;-74
2023/04/02 08:45:11;;;;;;;1.70;1.60;;;5.50;99.90;;;;;;5044518;28;20448;-74
2023/04/02 08:47:39;;;;;;;2.13;1.73;;;5.60;99.90;;;;;;5056231;28;20460;-73
2023/04/02 08:50:17;;;;;;;1.80;1.63;;;5.60;99.90;;;;;;5052552;28;20417;-72
2023/04/02 08:52:42;;;;;;;4.53;1.43;;;5.50;99.90;;;;;;5049736;28;20609;-73
2023/04/02 08:55:31;;;;;;;2.57;1.63;;;5.40;99.90;;;;;;5053495;28;20546;-73
2023/04/02 08:58:04;;;;;;;1.67;1.40;;;5.40;99.90;;;;;;5053786;28;20171;-74
2023/04/02 09:00:42;;;;;;;1.70;1.60;;;5.60;99.90;;;;;;5055775;28;20429;-73
2023/04/02 09:03:35;;;;;;;5.40;1.70;;;5.80;99.90;;;;;;5055403;28;20977;-72
2023/04/02 09:06:02;;;;;;;2.90;2.70;;;5.70;99.90;;;;;;5050829;28;20552;-72
2023/04/02 09:08:30;;;;;;;2.63;1.60;;;5.70;99.90;;;;;;5055795;28;20410;-72
2023/04/02 09:11:06;;;;;;;2.27;1.60;;;5.60;99.90;;;;;;5055467;28;20409;-72
2023/04/02 09:13:36;;;;;;;3.90;1.40;;;5.40;99.90;;;;;;5049051;28;20454;-71
2023/04/02 09:16:13;;;;;;;2.70;1.40;;;5.30;99.90;;;;;;5055227;28;20877;-72
2023/04/02 09:18:40;;;;;;;2.73;1.37;;;5.30;99.90;;;;;;5055630;28;20575;-72
2023/04/02 09:21:22;;;;;;;4.13;1.90;;;5.30;99.90;;;;;;5053486;28;20425;-75
2023/04/02 09:23:48;;;;;;;3.57;1.60;;;5.20;99.90;;;;;;5055253;28;20774;-74
2023/04/02 09:26:29;;;;;;;2.60;1.77;;;5.40;99.90;;;;;;5054918;28;20603;-76
2023/04/02 09:29:06;;;;;;;3.83;2.07;;;5.50;99.90;;;;;;5055786;28;20414;-76
2023/04/02 09:31:49;;;;;;;4.27;2.27;;;5.90;99.90;;;;;;5041247;28;20710;-73
2023/04/02 09:34:32;;;;;;;3.90;1.57;;;6.40;99.90;;;;;;5054069;28;20409;-73
2023/04/02 09:37:13;;;;;;;2.47;1.23;;;7.10;99.90;;;;;;5054418;28;20526;-74
2023/04/02 09:39:39;;;;;;;5.60;1.80;;;7.50;99.90;;;;;;5052050;28;20407;-72
2023/04/02 09:42:07;;;;;;;5.77;1.40;;;7.80;99.90;;;;;;5053176;28;20482;-73
2023/04/02 09:44:33;;;;;;;5.67;1.17;;;8.50;99.90;;;;;;5051036;28;20501;-72
2023/04/02 09:47:04;;;;;;;2.70;1.70;;;8.30;99.90;;;;;;5054140;28;20605;-72
2023/04/02 09:49:33;;;;;;;3.03;1.43;;;8.50;99.90;;;;;;5055384;28;20427;-74
2023/04/02 09:52:18;;;;;;;4.20;1.77;;;8.30;99.90;;;;;;5053495;28;20413;-73
2023/04/02 09:54:44;;;;;;;3.20;1.63;;;7.90;99.90;;;;;;5050039;28;20975;-72
2023/04/02 09:57:26;;;;;;;3.00;1.20;;;7.70;99.90;;;;;;5052202;28;20523;-72
2023/04/02 10:00:27;;;;;;;4.20;1.50;;;7.90;99.90;;;;;;5053547;28;20402;-73
2023/04/02 10:03:20;;;;;;;4.40;1.30;;;8.10;99.90;;;;;;4967148;28;20877;-74
2023/04/02 10:05:46;;;;;;;3.03;1.63;;;7.50;99.90;;;;;;5050350;28;20465;-74
2023/04/02 10:08:17;;;;;;;3.00;1.20;;;7.60;99.90;;;;;;5054201;28;20406;-74
2023/04/02 10:10:48;;;;;;;2.50;1.10;;;7.50;99.90;;;;;;5053117;28;20791;-74
2023/04/02 10:13:37;;;;;;;2.10;1.10;;;7.60;99.90;;;;;;5053429;28;20471;-72
2023/04/02 10:16:09;;;;;;;1.63;1.47;;;7.70;99.90;;;;;;5053094;28;20421;-73
2023/04/02 10:18:53;;;;;;;5.63;1.30;;;7.70;99.90;;;;;;5047273;28;20409;-73
2023/04/02 10:21:27;;;;;;;2.40;1.20;;;7.60;99.90;;;;;;5051687;28;20410;-72
2023/04/02 10:23:54;;;;;;;2.93;1.57;;;7.70;99.90;;;;;;5054923;28;20405;-72
2023/04/02 10:26:44;;;;;;;4.17;1.50;;;7.60;99.90;;;;;;5054708;28;20570;-72
2023/04/02 10:29:28;;;;;;;7.00;2.13;;;7.20;99.90;;;;;;5054672;28;20424;-73
2023/04/02 10:31:58;;;;;;;6.60;1.80;;;7.00;99.90;;;;;;5052261;28;20414;-74
2023/04/02 10:34:38;;;;;;;4.67;1.73;;;6.80;99.90;;;;;;5052079;28;20424;-72
2023/04/02 10:37:34;;;;;;;4.07;2.47;;;6.80;99.90;;;;;;5052015;28;20764;-73
2023/04/02 10:40:09;;;;;;;3.30;2.17;;;6.80;99.90;;;;;;5040881;28;20465;-72
2023/04/02 10:42:51;;;;;;;2.27;1.57;;;6.80;99.90;;;;;;5046386;28;20405;-73
2023/04/02 10:45:17;;;;;;;2.10;1.60;;;6.80;99.90;;;;;;5053108;28;20470;-73
2023/04/02 10:47:56;;;;;;;2.73;1.67;;;6.90;99.90;;;;;;5052940;28;20512;-72
2023/04/02 10:50:35;;;;;;;1.73;1.63;;;7.10;99.90;;;;;;5051769;28;20221;-73
2023/04/02 10:53:26;;;;;;;2.07;1.57;;;7.30;99.90;;;;;;5052107;28;20467;-73
2023/04/02 10:56:02;;;;;;;2.67;1.80;;;7.20;99.90;;;;;;5044382;28;20824;-73
2023/04/02 10:58:30;;;;;;;2.63;1.50;;;7.30;99.90;;;;;;5051764;28;20757;-74
2023/04/02 11:01:00;;;;;;;2.00;1.70;;;7.50;99.90;;;;;;5073739;22;21718;-75
2023/04/02 11:03:34;;;;;;;2.83;1.30;;;7.90;99.90;;;;;;5068597;28;20509;-74
2023/04/02 11:06:10;;;;;;;1.97;1.47;;;7.90;99.90;;;;;;5048727;28;20587;-73
2023/04/02 11:08:45;;;;;;;3.30;1.77;;;7.90;99.90;;;;;;5047524;28;20464;-75
2023/04/02 11:11:18;;;;;;;3.57;1.40;;;7.80;99.90;;;;;;5052990;28;20425;-75
2023/04/02 11:14:29;;;;;;;3.07;1.43;;;7.90;99.90;;;;;;5052430;28;20439;-73
2023/04/02 11:17:01;;;;;;;1.43;1.20;;;7.60;99.90;;;;;;5047762;28;20930;-75
2023/04/02 11:19:29;;;;;;;3.13;1.60;;;7.50;99.90;;;;;;5052831;28;20421;-75
2023/04/02 11:21:55;;;;;;;4.67;1.70;;;7.40;99.90;;;;;;5050779;28;20441;-75
2023/04/02 11:24:31;;;;;;;4.20;1.47;;;7.60;99.90;;;;;;5052333;28;20435;-75
2023/04/02 11:27:17;;;;;;;3.00;1.37;;;7.50;99.90;;;;;;5052406;28;20688;-74
2023/04/02 11:29:50;;;;;;;2.60;1.57;;;7.30;99.90;;;;;;5033818;28;20403;-73
2023/04/02 11:32:23;;;;;;;3.00;1.40;;;7.20;99.90;;;;;;5050172;28;20781;-75
2023/04/02 11:34:49;;;;;;;2.23;1.70;;;7.10;99.90;;;;;;5052012;28;20408;-74
2023/04/02 11:37:30;;;;;;;9.77;1.53;;;7.00;99.90;;;;;;5049761;28;20418;-74
2023/04/02 11:39:58;;;;;;;1.40;1.10;;;7.20;99.90;;;;;;5052074;28;20175;-74
2023/04/02 11:42:32;;;;;;;3.77;1.80;;;7.30;99.90;;;;;;5051137;28;20462;-75
2023/04/02 11:45:22;;;;;;;2.03;1.40;;;7.50;99.90;;;;;;5050166;28;20468;-73
2023/04/02 11:48:00;;;;;;;4.07;1.70;;;7.60;99.90;;;;;;5053969;28;20887;-75
2023/04/02 11:50:30;;;;;;;3.50;1.63;;;7.70;99.90;;;;;;5055347;28;20458;-74
2023/04/02 11:53:21;;;;;;;3.17;1.77;;;7.90;99.90;;;;;;5055356;28;20400;-75
2023/04/02 11:56:17;;;;;;;2.40;1.47;;;8.10;99.90;;;;;;5053711;28;20430;-76
2023/04/02 11:59:07;;;;;;;1.70;1.60;;;8.10;99.90;;;;;;5050570;28;20407;-74
2023/04/02 12:02:04;;;;;;;2.20;1.30;;;8.10;99.90;;;;;;5047618;28;20801;-75
2023/04/02 12:04:45;;;;;;;2.40;1.67;;;8.00;99.90;;;;;;5031281;28;20406;-74
2023/04/02 12:07:33;;;;;;;2.37;2.17;;;7.90;99.90;;;;;;5054620;28;20464;-74
2023/04/02 12:10:10;;;;;;;4.40;1.67;;;7.80;99.90;;;;;;5049857;28;20400;-75
2023/04/02 12:12:37;;;;;;;3.87;1.80;;;7.90;99.90;;;;;;5049956;28;20420;-75
2023/04/02 12:15:43;;;;;;;2.20;1.40;;;7.80;99.90;;;;;;5054177;28;20909;-75
2023/04/02 12:18:21;;;;;;;1.60;1.50;;;8.00;99.90;;;;;;5053809;28;20766;-77
2023/04/02 12:20:50;;;;;;;6.00;1.60;;;8.10;99.90;;;;;;5049087;28;20473;-76
2023/04/02 12:23:30;;;;;;;5.20;2.13;;;8.00;99.90;;;;;;5051953;28;20916;-75
2023/04/02 12:25:57;;;;;;;3.00;2.07;;;8.20;99.90;;;;;;5054174;28;20463;-75
2023/04/02 12:28:24;;;;;;;3.90;1.80;;;8.00;99.90;;;;;;5049296;28;20809;-74
2023/04/02 12:30:50;;;;;;;2.70;1.67;;;8.00;99.90;;;;;;5054486;28;20453;-74
2023/04/02 12:33:19;;;;;;;5.83;1.47;;;8.10;99.90;;;;;;5054029;28;20466;-74
2023/04/02 12:35:53;;;;;;;1.63;1.30;;;8.30;99.90;;;;;;5048053;28;20429;-75
2023/04/02 12:38:27;;;;;;;2.50;1.30;;;8.30;99.90;;;;;;5052442;28;20430;-75
2023/04/02 12:41:02;;;;;;;2.63;1.53;;;8.50;99.90;;;;;;5048234;28;20437;-75
2023/04/02 12:43:33;;;;;;;2.93;1.30;;;8.60;99.90;;;;;;5050539;28;20497;-76
2023/04/02 12:46:04;;;;;;;6.07;1.83;;;8.50;99.90;;;;;;5053661;28;20457;-75
2023/04/02 12:48:31;;;;;;;3.00;1.50;;;8.50;99.90;;;;;;5050704;28;20398;-75
2023/04/02 12:50:57;;;;;;;3.37;1.60;;;8.40;99.90;;;;;;5049637;28;20799;-74
2023/04/02 12:53:28;;;;;;;3.60;1.40;;;8.30;99.90;;;;;;5054561;28;20404;-75
2023/04/02 12:55:55;;;;;;;6.93;1.60;;;8.10;99.90;;;;;;5052950;28;20402;-73
2023/04/02 12:58:36;;;;;;;3.07;1.23;;;8.10;99.90;;;;;;5052617;28;20802;-77
2023/04/02 13:01:30;;;;;;;3.60;1.30;;;8.40;99.90;;;;;;5050370;28;20611;-74
2023/04/02 13:04:02;;;;;;;5.60;1.33;;;8.60;99.90;;;;;;5045448;28;20407;-73
2023/04/02 13:06:29;;;;;;;1.70;1.60;;;8.90;99.90;;;;;;5050628;28;21022;-75
2023/04/02 13:08:55;;;;;;;2.10;1.47;;;8.80;99.90;;;;;;5053939;28;20407;-76
2023/04/02 13:11:22;;;;;;;1.80;1.40;;;8.80;99.90;;;;;;5051811;28;20439;-75
2023/04/02 13:13:49;;;;;;;2.10;1.70;;;8.70;99.90;;;;;;5055773;28;20400;-76
2023/04/02 13:16:17;;;;;;;2.40;1.60;;;8.70;99.90;;;;;;5055547;28;20905;-74
2023/04/02 13:18:47;;;;;;;2.50;1.80;;;8.60;99.90;;;;;;5057271;28;20424;-75
2023/04/02 13:21:16;;;;;;;4.07;2.03;;;8.40;99.90;;;;;;5054382;28;20479;-74
2023/04/02 13:23:42;;;;;;;1.77;1.20;;;8.20;99.90;;;;;;5059677;28;20406;-77
2023/04/02 13:26:21;;;;;;;3.10;1.40;;;8.20;99.90;;;;;;5059412;28;20449;-75
2023/04/02 13:29:09;;;;;;;1.90;1.43;;;8.50;99.90;;;;;;5050733;28;20875;-73
2023/04/02 13:31:35;;;;;;;4.17;1.30;;;8.60;99.90;;;;;;5052156;28;20521;-74
2023/04/02 13:34:01;;;;;;;2.30;1.10;;;8.70;99.90;;;;;;5057007;28;20444;-74
2023/04/02 13:36:28;;;;;;;2.93;1.37;;;8.80;99.90;;;;;;5054626;28;20204;-75
2023/04/02 13:38:54;;;;;;;1.53;1.20;;;9.10;99.90;;;;;;5056024;28;20901;-76